Time;durP1;ratioP1;P1;durP2;ratioP2;P2;SDS_P1;SDS_P2;PMS_P1;PMS_P2;Temp;Humidity;BMP_temperature;BMP_pressure;BME280_temperature;BME280_humidity;BME280_pressure;Samples;Min_cycle;Max_cycle;Signal;HPM_P1;HPM_P2
2022/02/24 00:00:09;;;;;;;8.27;7.47;;;2.30;99.90;;;2.99;90.97;98362.97;5242419;28;20202;-64
2022/02/24 00:02:42;;;;;;;10.30;7.73;;;2.30;99.90;;;3.06;90.97;98365.34;5241040;28;20583;-64
2022/02/24 00:05:17;;;;;;;9.23;7.70;;;2.30;99.90;;;3.05;91.85;98362.66;5237088;28;20479;-63
2022/02/24 00:07:51;;;;;;;9.77;7.83;;;2.30;99.90;;;3.01;90.88;98366.53;5242306;28;20598;-65
2022/02/24 00:10:24;;;;;;;7.77;7.07;;;2.20;99.90;;;2.97;91.88;98363.56;5238589;28;20200;-64
2022/02/24 00:12:57;;;;;;;7.70;6.93;;;2.20;99.90;;;2.80;91.39;98364.50;5243636;28;20586;-63
2022/02/24 00:15:30;;;;;;;9.20;7.13;;;2.20;99.90;;;2.81;91.19;98364.66;5242028;28;20194;-63
2022/02/24 00:18:04;;;;;;;9.43;7.77;;;2.10;99.90;;;2.84;91.25;98362.41;5240778;28;20237;-63
2022/02/24 00:20:41;;;;;;;8.07;7.30;;;2.20;99.90;;;2.80;91.46;98356.94;5240713;28;20217;-63
2022/02/24 00:23:14;;;;;;;8.30;7.57;;;2.20;99.90;;;2.81;91.29;98351.16;5240992;28;20202;-65
2022/02/24 00:25:47;;;;;;;8.47;7.37;;;2.20;99.90;;;2.87;91.56;98354.25;5243138;28;20590;-65
2022/02/24 00:28:20;;;;;;;8.67;7.80;;;2.20;99.90;;;2.84;90.79;98346.41;5239355;28;20207;-64
2022/02/24 00:30:53;;;;;;;10.33;8.20;;;2.20;99.90;;;2.90;91.62;98346.97;5239556;28;20204;-63
2022/02/24 00:33:26;;;;;;;9.70;8.77;;;2.30;99.90;;;2.93;92.08;98342.19;5240617;28;20218;-64
2022/02/24 00:36:00;;;;;;;9.07;8.20;;;2.20;99.90;;;2.96;91.63;98345.00;5240746;28;20660;-62
2022/02/24 00:38:35;;;;;;;9.40;7.70;;;2.30;99.90;;;2.96;92.41;98342.50;5242102;28;20213;-62
2022/02/24 00:41:08;;;;;;;10.80;7.30;;;2.30;99.90;;;2.97;91.29;98343.38;5240581;28;20215;-63
2022/02/24 00:43:41;;;;;;;9.00;7.60;;;2.30;99.90;;;2.99;91.84;98337.72;5243848;28;20209;-65
2022/02/24 00:46:14;;;;;;;8.77;7.87;;;2.40;99.90;;;3.05;92.29;98339.94;5243145;28;20223;-62
2022/02/24 00:48:47;;;;;;;9.53;7.87;;;2.40;99.90;;;2.99;90.69;98332.69;5245888;28;20234;-64
2022/02/24 00:51:22;;;;;;;8.40;7.47;;;2.40;99.90;;;3.05;91.38;98335.75;5240258;28;20672;-63
2022/02/24 00:53:55;;;;;;;7.90;7.20;;;2.40;99.90;;;3.07;91.23;98334.28;5242505;28;20196;-63
2022/02/24 00:56:28;;;;;;;8.10;7.27;;;2.40;99.90;;;3.06;90.99;98330.00;5244386;28;20680;-62
2022/02/24 00:59:01;;;;;;;8.80;7.90;;;2.40;99.90;;;3.07;91.65;98333.41;5243348;28;20317;-62
2022/02/24 01:01:34;;;;;;;9.13;7.67;;;2.40;99.90;;;3.23;91.80;98335.69;5242738;28;20223;-64
2022/02/24 01:04:08;;;;;;;9.07;7.23;;;2.50;99.90;;;3.21;91.99;98337.22;5243138;28;20252;-64
2022/02/24 01:06:42;;;;;;;8.67;7.53;;;2.60;99.90;;;3.21;91.69;98324.59;5244732;28;20213;-63
2022/02/24 01:09:15;;;;;;;9.03;7.90;;;2.60;99.90;;;3.28;92.21;98326.91;5242883;28;20202;-64
2022/02/24 01:11:49;;;;;;;11.17;7.67;;;2.70;99.90;;;3.34;92.28;98320.78;5241732;28;20238;-62
2022/02/24 01:14:24;;;;;;;8.83;7.27;;;2.70;99.90;;;3.38;90.52;98310.22;5244780;28;20219;-62
2022/02/24 01:16:58;;;;;;;9.00;7.10;;;2.70;99.90;;;3.33;90.83;98311.44;5242323;28;20293;-64
2022/02/24 01:19:31;;;;;;;7.80;6.83;;;2.70;99.90;;;3.38;90.40;98306.81;5246156;28;20576;-64
2022/02/24 01:22:05;;;;;;;8.37;7.17;;;2.70;99.90;;;3.47;90.38;98304.25;5237242;28;20229;-65
2022/02/24 01:24:38;;;;;;;7.83;7.03;;;2.70;99.90;;;3.49;91.00;98301.13;5241403;28;20205;-61
2022/02/24 01:27:11;;;;;;;8.67;7.20;;;2.80;99.90;;;3.42;90.25;98298.75;5242919;28;20193;-63
2022/02/24 01:29:45;;;;;;;7.53;6.83;;;2.70;99.90;;;3.41;90.74;98299.53;5246161;28;20200;-63
2022/02/24 01:32:18;;;;;;;8.53;6.70;;;2.70;99.90;;;3.38;90.60;98295.06;5238387;28;20233;-64
2022/02/24 01:34:58;;;;;;;7.40;6.50;;;2.70;99.90;;;3.45;90.49;98290.56;5243306;28;20569;-64
2022/02/24 01:37:32;;;;;;;9.00;6.90;;;2.80;99.90;;;3.52;91.15;98286.22;5243494;28;20289;-64
2022/02/24 01:40:06;;;;;;;7.50;6.73;;;2.80;99.90;;;3.66;90.79;98282.41;5243193;28;20553;-66
2022/02/24 01:42:39;;;;;;;7.47;6.53;;;3.00;99.90;;;3.67;91.42;98283.31;5243121;28;20215;-63
2022/02/24 01:45:14;;;;;;;7.40;6.80;;;3.10;99.90;;;3.70;90.68;98281.94;5245855;28;20222;-61
2022/02/24 01:47:47;;;;;;;7.47;6.70;;;3.00;99.90;;;3.75;90.32;98282.34;5246172;28;20590;-63
2022/02/24 01:50:20;;;;;;;7.10;6.37;;;3.00;99.90;;;3.83;89.78;98282.31;5237591;28;20211;-61
2022/02/24 01:52:55;;;;;;;6.97;6.37;;;3.00;99.90;;;3.79;89.54;98275.19;5244477;28;20713;-63
2022/02/24 01:55:29;;;;;;;8.03;6.47;;;3.00;99.90;;;3.69;89.28;98266.63;5243804;28;20213;-63
2022/02/24 01:58:03;;;;;;;7.33;6.63;;;2.90;99.90;;;3.58;89.98;98258.09;5239435;28;20230;-62
2022/02/24 02:00:38;;;;;;;7.17;6.57;;;2.80;99.90;;;3.59;90.40;98245.59;5237913;28;20654;-62
2022/02/24 02:03:11;;;;;;;6.83;6.00;;;2.90;99.90;;;3.58;90.12;98241.28;5238810;28;20195;-64
2022/02/24 02:05:44;;;;;;;7.07;6.23;;;2.80;99.90;;;3.54;90.30;98241.75;5239255;28;20552;-64
2022/02/24 02:08:19;;;;;;;7.30;6.50;;;2.80;99.90;;;3.48;89.59;98241.19;5241759;28;20194;-61
2022/02/24 02:10:52;;;;;;;8.17;6.63;;;2.70;99.90;;;3.47;89.27;98238.56;5243284;28;20192;-66
2022/02/24 02:13:25;;;;;;;7.73;7.00;;;2.70;99.90;;;3.47;89.17;98236.03;5238499;28;20206;-65
2022/02/24 02:15:58;;;;;;;7.03;6.30;;;2.70;99.90;;;3.34;89.31;98228.97;5244602;28;20553;-63
2022/02/24 02:18:31;;;;;;;7.33;6.50;;;2.60;99.90;;;3.31;89.94;98226.16;5241175;28;20224;-65
2022/02/24 02:21:06;;;;;;;6.13;5.53;;;2.60;99.90;;;3.21;90.59;98241.25;5236729;28;20221;-63
2022/02/24 02:23:39;;;;;;;7.00;6.37;;;2.50;99.90;;;3.33;90.44;98234.78;5243140;28;20203;-63
2022/02/24 02:26:12;;;;;;;7.77;6.97;;;2.40;99.90;;;3.35;90.05;98238.34;5236199;28;20191;-64
2022/02/24 02:28:45;;;;;;;7.97;7.17;;;2.40;99.90;;;3.33;89.83;98229.72;5244063;28;20196;-62
2022/02/24 02:31:20;;;;;;;9.17;8.23;;;2.40;99.90;;;3.25;90.30;98236.59;5241268;28;20261;-65
2022/02/24 02:34:02;;;;;;;10.00;8.43;;;2.40;99.90;;;3.21;90.78;98239.59;5240042;28;20321;-63
2022/02/24 02:36:38;;;;;;;8.10;7.30;;;2.30;99.90;;;3.17;89.71;98232.47;5242911;28;20195;-64
2022/02/24 02:39:13;;;;;;;7.20;6.50;;;2.30;99.90;;;3.05;90.56;98229.72;5243768;28;20215;-65
2022/02/24 02:41:48;;;;;;;8.63;7.67;;;2.20;99.90;;;3.01;90.71;98220.09;5241950;28;20277;-62
2022/02/24 02:44:21;;;;;;;8.83;7.60;;;2.30;99.90;;;2.93;91.38;98226.06;5239938;28;20187;-63
2022/02/24 02:46:54;;;;;;;8.40;7.60;;;2.20;99.90;;;2.97;91.14;98223.06;5238939;28;20193;-62
2022/02/24 02:49:27;;;;;;;9.20;7.60;;;2.20;99.90;;;3.03;91.00;98223.63;5242491;28;20196;-60
2022/02/24 02:52:02;;;;;;;9.60;7.47;;;2.20;99.90;;;3.17;90.06;98222.38;5243857;28;20229;-63
2022/02/24 02:54:35;;;;;;;9.07;8.17;;;2.20;99.90;;;3.06;90.14;98229.00;5242773;28;20202;-63
2022/02/24 02:57:08;;;;;;;9.90;8.40;;;2.20;99.90;;;2.99;90.63;98224.13;5236519;28;20209;-65
2022/02/24 02:59:41;;;;;;;9.27;8.47;;;2.20;99.90;;;2.92;91.33;98219.25;5242378;28;20698;-64
2022/02/24 03:02:14;;;;;;;9.30;7.67;;;2.10;99.90;;;2.87;91.44;98212.91;5243444;28;20217;-65
2022/02/24 03:04:50;;;;;;;7.70;6.87;;;2.10;99.90;;;2.89;91.74;98208.84;5243196;28;20207;-63
2022/02/24 03:07:25;;;;;;;7.97;7.00;;;2.10;99.90;;;2.89;91.35;98207.25;5241879;28;20289;-62
2022/02/24 03:09:58;;;;;;;7.97;7.13;;;2.20;99.90;;;2.91;91.44;98202.31;5240858;28;20192;-62
2022/02/24 03:12:35;;;;;;;7.30;6.53;;;2.20;99.90;;;2.97;91.38;98199.47;5243160;28;20227;-61
2022/02/24 03:15:13;;;;;;;6.77;6.17;;;2.30;99.90;;;2.93;92.59;98200.84;5244430;28;20223;-64
2022/02/24 03:17:48;;;;;;;7.20;6.57;;;2.20;99.90;;;3.01;92.01;98187.28;5238683;28;20200;-62
2022/02/24 03:20:21;;;;;;;6.50;5.90;;;2.30;99.90;;;3.03;91.42;98183.22;5241849;28;20238;-64
2022/02/24 03:22:55;;;;;;;6.63;5.93;;;2.20;99.90;;;3.02;91.19;98178.94;5242991;28;20269;-63
2022/02/24 03:25:29;;;;;;;5.77;5.37;;;2.20;99.90;;;3.06;91.74;98175.97;5238624;28;20205;-64
2022/02/24 03:28:02;;;;;;;5.43;5.03;;;2.20;99.90;;;3.01;91.23;98177.19;5241684;28;20203;-62
2022/02/24 03:30:37;;;;;;;6.73;5.67;;;2.20;99.90;;;3.08;91.57;98171.91;5239645;28;20671;-63
2022/02/24 03:33:10;;;;;;;5.90;5.47;;;2.20;99.90;;;3.03;90.64;98173.13;5253389;22;20224;-62
2022/02/24 03:35:44;;;;;;;5.80;5.30;;;2.20;99.90;;;2.97;91.27;98175.09;5239011;28;20197;-62
2022/02/24 03:38:18;;;;;;;5.60;5.20;;;2.10;99.90;;;2.95;91.70;98164.00;5241295;28;20569;-65
2022/02/24 03:40:51;;;;;;;5.23;4.73;;;2.10;99.90;;;2.90;91.96;98160.16;5241439;28;20214;-63
2022/02/24 03:43:24;;;;;;;5.90;5.30;;;2.10;99.90;;;2.93;92.63;98161.31;5239502;28;20220;-63
2022/02/24 03:45:57;;;;;;;6.10;5.13;;;2.20;99.90;;;2.92;92.08;98162.09;5242560;28;20201;-63
2022/02/24 03:48:31;;;;;;;5.37;4.90;;;2.20;99.90;;;2.89;91.37;98151.72;5243649;28;20201;-63
2022/02/24 03:51:05;;;;;;;6.87;5.23;;;2.10;99.90;;;2.90;92.27;98161.06;5243333;28;20207;-63
2022/02/24 03:53:39;;;;;;;6.67;5.90;;;2.10;99.90;;;2.92;92.17;98153.63;5241669;28;20223;-63
2022/02/24 03:56:12;;;;;;;6.13;5.57;;;2.20;99.90;;;2.92;91.67;98152.00;5240288;28;20197;-63
2022/02/24 03:58:45;;;;;;;6.67;5.87;;;2.20;99.90;;;3.04;93.00;98158.91;5235850;28;20219;-63
2022/02/24 04:01:18;;;;;;;6.03;5.53;;;2.30;99.90;;;3.14;92.04;98152.28;5243305;28;20203;-63
2022/02/24 04:03:52;;;;;;;6.20;5.60;;;2.30;99.90;;;3.20;92.65;98146.88;5234407;28;20690;-63
2022/02/24 04:06:25;;;;;;;5.97;5.37;;;2.40;99.90;;;3.15;92.73;98145.59;5242344;28;20201;-63
2022/02/24 04:08:59;;;;;;;7.60;6.60;;;2.40;99.90;;;3.15;92.52;98143.97;5241779;28;20270;-63
2022/02/24 04:11:33;;;;;;;6.30;5.77;;;2.40;99.90;;;3.17;92.61;98139.03;5242751;28;20220;-63
2022/02/24 04:14:06;;;;;;;6.63;6.10;;;2.40;99.90;;;3.13;92.27;98139.53;5235322;28;20288;-63
2022/02/24 04:16:39;;;;;;;6.40;5.90;;;2.40;99.90;;;3.12;91.18;98127.66;5238347;28;20246;-63
2022/02/24 04:19:13;;;;;;;5.43;5.03;;;2.40;99.90;;;3.16;92.54;98128.06;5246722;28;20216;-63
2022/02/24 04:21:48;;;;;;;6.10;5.50;;;2.50;99.90;;;3.17;91.83;98127.28;5245526;28;20744;-64
2022/02/24 04:24:23;;;;;;;5.90;5.40;;;2.40;99.90;;;3.13;91.42;98124.38;5247208;28;20225;-64
2022/02/24 04:26:56;;;;;;;4.53;4.10;;;2.30;99.90;;;3.14;91.47;98126.13;5240743;28;20273;-64
2022/02/24 04:29:29;;;;;;;5.43;4.93;;;2.30;99.90;;;3.09;91.30;98113.13;5245445;28;20190;-64
2022/02/24 04:32:03;;;;;;;6.63;5.47;;;2.30;99.90;;;2.99;91.96;98118.06;5244329;28;20229;-64
2022/02/24 04:34:36;;;;;;;5.53;5.13;;;2.20;99.90;;;2.97;91.08;98117.03;5238963;28;20321;-64
2022/02/24 04:37:09;;;;;;;5.93;5.30;;;2.10;99.90;;;3.03;91.06;98119.22;5246744;28;20216;-64
2022/02/24 04:39:43;;;;;;;5.57;5.17;;;2.20;99.90;;;3.00;91.96;98112.25;5247017;28;20224;-64
2022/02/24 04:42:18;;;;;;;5.90;5.40;;;2.20;99.90;;;3.05;92.19;98116.09;5246546;28;20224;-64
2022/02/24 04:44:51;;;;;;;5.90;5.27;;;2.20;99.90;;;2.98;91.85;98111.25;5246227;28;20199;-64
2022/02/24 04:47:26;;;;;;;6.43;5.83;;;2.10;99.90;;;2.86;91.87;98107.59;5247162;28;20199;-63
2022/02/24 04:49:59;;;;;;;5.37;4.97;;;2.00;99.90;;;2.74;92.17;98102.34;5245889;28;20707;-64
2022/02/24 04:52:33;;;;;;;5.70;5.20;;;1.90;99.90;;;2.82;91.18;98106.44;5245543;28;20743;-63
2022/02/24 04:55:10;;;;;;;8.50;5.80;;;2.00;99.90;;;2.71;92.00;98097.03;5241309;28;20242;-64
2022/02/24 04:57:53;;;;;;;9.07;7.30;;;1.90;99.90;;;2.68;92.54;98102.66;5240957;28;20197;-64
2022/02/24 05:00:34;;;;;;;6.40;5.67;;;1.90;99.90;;;2.73;92.76;98104.75;5240487;28;20309;-64
2022/02/24 05:03:07;;;;;;;6.57;5.83;;;1.90;99.90;;;2.78;92.54;98093.44;5246103;28;20215;-64
2022/02/24 05:05:42;;;;;;;6.40;4.93;;;2.00;99.90;;;2.73;93.10;98094.66;5245063;28;20658;-64
2022/02/24 05:08:15;;;;;;;6.20;5.60;;;2.00;99.90;;;2.70;93.09;98083.53;5242537;28;20666;-64
2022/02/24 05:10:51;;;;;;;5.40;4.90;;;1.90;99.90;;;2.67;92.80;98083.25;5239925;28;20271;-65
2022/02/24 05:13:26;;;;;;;5.27;4.87;;;1.90;99.90;;;2.71;92.23;98082.75;5247021;28;20680;-64
2022/02/24 05:15:59;;;;;;;4.80;4.30;;;1.80;99.90;;;2.69;92.01;98083.41;5242823;28;20561;-64
2022/02/24 05:18:33;;;;;;;5.30;4.90;;;1.80;99.90;;;2.65;91.45;98082.22;5240456;28;20193;-64
2022/02/24 05:21:06;;;;;;;5.60;5.03;;;1.80;99.90;;;2.63;92.06;98072.72;5241985;28;20638;-64
2022/02/24 05:23:40;;;;;;;5.70;5.20;;;1.80;99.90;;;2.58;91.27;98079.91;5244422;28;20223;-63
2022/02/24 05:26:14;;;;;;;6.23;5.73;;;1.80;99.90;;;2.61;91.52;98076.78;5244325;28;20565;-64
2022/02/24 05:28:47;;;;;;;4.73;4.43;;;1.80;99.90;;;2.63;92.10;98077.78;5244173;28;20269;-64
2022/02/24 05:31:21;;;;;;;4.47;4.17;;;1.80;99.90;;;2.57;92.01;98062.97;5241154;28;20589;-64
2022/02/24 05:33:54;;;;;;;5.63;5.13;;;1.80;99.90;;;2.53;92.03;98050.84;5245338;28;20224;-64
2022/02/24 05:36:27;;;;;;;6.60;6.00;;;1.70;99.90;;;2.46;92.80;98044.34;5237698;28;20196;-62
2022/02/24 05:39:00;;;;;;;7.63;6.87;;;1.70;99.90;;;2.44;92.28;98039.91;5241914;28;20204;-64
2022/02/24 05:41:35;;;;;;;7.57;6.87;;;1.70;99.90;;;2.41;91.97;98034.59;5245725;28;20523;-63
2022/02/24 05:44:08;;;;;;;9.63;7.37;;;1.70;99.90;;;2.36;92.74;98036.69;5248822;28;20200;-64
2022/02/24 05:46:41;;;;;;;7.07;6.47;;;1.60;99.90;;;2.34;92.87;98034.75;5244684;28;20247;-64
2022/02/24 05:49:16;;;;;;;7.63;6.93;;;1.70;99.90;;;2.33;93.36;98043.97;5245819;28;20197;-64
2022/02/24 05:51:51;;;;;;;7.23;6.53;;;1.60;99.90;;;2.33;93.53;98040.56;5240490;28;20607;-64
2022/02/24 05:54:24;;;;;;;7.07;6.57;;;1.70;99.90;;;2.33;93.85;98041.44;5238099;28;20211;-63
2022/02/24 05:56:59;;;;;;;7.47;6.60;;;1.70;99.90;;;2.34;93.17;98037.28;5246413;28;20215;-63
2022/02/24 05:59:32;;;;;;;7.73;7.13;;;1.70;99.90;;;2.34;93.77;98043.22;5245462;28;20188;-64
2022/02/24 06:02:06;;;;;;;7.47;6.87;;;1.60;99.90;;;2.40;93.33;98042.88;5248491;28;20287;-64
2022/02/24 06:04:39;;;;;;;7.30;6.63;;;1.70;99.90;;;2.46;94.09;98033.34;5247935;28;20614;-64
2022/02/24 06:07:12;;;;;;;6.63;6.03;;;1.80;99.90;;;2.46;93.27;98030.81;5247756;28;20290;-63
2022/02/24 06:09:45;;;;;;;6.17;5.57;;;1.70;99.90;;;2.46;93.16;98035.88;5247815;28;20203;-63
2022/02/24 06:12:19;;;;;;;6.57;5.97;;;1.70;99.90;;;2.56;93.77;98040.13;5247697;28;20221;-64
2022/02/24 06:14:53;;;;;;;6.57;5.90;;;1.80;99.90;;;2.55;93.53;98039.25;5247165;28;20200;-62
2022/02/24 06:17:26;;;;;;;6.70;6.10;;;1.80;99.90;;;2.61;93.06;98037.28;5242027;28;20288;-63
2022/02/24 06:19:59;;;;;;;5.87;5.37;;;1.80;99.90;;;2.58;92.87;98031.06;5244232;28;20224;-62
2022/02/24 06:22:32;;;;;;;6.03;5.47;;;1.80;99.90;;;2.54;92.41;98026.50;5242350;28;20220;-63
2022/02/24 06:25:06;;;;;;;5.67;5.17;;;1.80;99.90;;;2.54;93.71;98031.53;5243463;28;20572;-63
2022/02/24 06:27:41;;;;;;;6.90;6.30;;;1.80;99.90;;;2.58;92.75;98031.97;5241085;28;20215;-63
2022/02/24 06:30:14;;;;;;;6.47;5.87;;;1.80;99.90;;;2.62;92.88;98028.94;5239102;28;20554;-64
2022/02/24 06:32:47;;;;;;;7.77;6.70;;;1.90;99.90;;;2.65;92.97;98031.75;5238341;28;20715;-62
2022/02/24 06:35:20;;;;;;;6.93;6.07;;;1.90;99.90;;;2.70;92.40;98025.47;5240469;28;20199;-64
2022/02/24 06:37:53;;;;;;;6.47;5.83;;;2.00;99.90;;;2.73;92.27;98019.81;5234670;28;20201;-64
2022/02/24 06:40:26;;;;;;;5.67;5.17;;;1.90;99.90;;;2.71;92.60;98017.16;5239302;28;20624;-63
2022/02/24 06:43:01;;;;;;;6.43;5.87;;;2.00;99.90;;;2.74;92.77;98018.19;5243379;28;20756;-64
2022/02/24 06:45:34;;;;;;;6.50;5.90;;;2.00;99.90;;;2.78;93.07;98015.22;5243025;28;20209;-62
2022/02/24 06:48:07;;;;;;;5.90;5.40;;;2.00;99.90;;;2.81;92.58;98012.94;5246347;28;20203;-64
2022/02/24 06:50:40;;;;;;;7.43;6.17;;;2.10;99.90;;;2.90;92.32;98017.16;5246135;28;20665;-64
2022/02/24 06:53:13;;;;;;;6.50;5.70;;;2.20;99.90;;;2.94;92.90;98025.88;5242632;28;20605;-64
2022/02/24 06:55:46;;;;;;;6.17;5.67;;;2.20;99.90;;;3.00;92.10;98010.41;5237021;28;20213;-64
2022/02/24 06:58:21;;;;;;;7.20;6.60;;;2.20;99.90;;;3.01;91.62;98023.19;5236953;28;20201;-63
2022/02/24 07:00:54;;;;;;;7.50;6.70;;;2.20;99.90;;;3.02;91.40;98008.91;5241742;28;20325;-64
2022/02/24 07:03:27;;;;;;;5.97;5.43;;;2.20;99.90;;;3.05;92.08;98011.69;5244318;28;20214;-63
2022/02/24 07:06:00;;;;;;;6.43;5.70;;;2.20;99.90;;;3.04;91.47;98005.78;5243172;28;20250;-64
2022/02/24 07:08:33;;;;;;;6.53;6.00;;;2.20;99.90;;;3.09;91.40;98007.06;5243990;28;20286;-61
2022/02/24 07:11:07;;;;;;;7.03;6.47;;;2.30;99.90;;;3.16;90.82;98011.88;5243429;28;20209;-64
2022/02/24 07:13:41;;;;;;;7.77;7.07;;;2.40;99.90;;;3.18;91.73;98014.56;5245214;28;20222;-63
2022/02/24 07:16:32;;;;;;;8.20;7.20;;;2.40;99.90;;;3.28;90.82;98013.72;5236293;28;20666;-64
2022/02/24 07:19:05;;;;;;;8.17;7.47;;;2.50;99.90;;;3.41;90.60;98006.47;5244283;28;20195;-64
2022/02/24 07:21:38;;;;;;;7.70;7.07;;;2.60;99.90;;;3.43;90.05;98007.47;5239114;28;20587;-64
2022/02/24 07:24:14;;;;;;;6.63;6.03;;;2.60;99.90;;;3.51;90.40;98009.00;5245415;28;20680;-63
2022/02/24 07:26:47;;;;;;;7.13;6.53;;;2.70;99.90;;;3.60;90.16;98007.28;5238823;28;20201;-64
2022/02/24 07:29:21;;;;;;;7.00;6.30;;;2.80;99.90;;;3.65;90.21;98004.28;5245063;28;20192;-64
2022/02/24 07:31:55;;;;;;;5.97;5.43;;;2.90;99.90;;;3.72;89.70;98004.94;5242365;28;20290;-65
2022/02/24 07:34:29;;;;;;;6.27;5.77;;;2.90;99.90;;;3.75;89.29;97999.22;5244315;28;20656;-64
2022/02/24 07:37:03;;;;;;;7.47;6.77;;;3.00;99.90;;;3.79;88.66;97988.63;5243175;28;20200;-64
2022/02/24 07:39:36;;;;;;;6.80;6.20;;;3.00;99.90;;;3.80;89.37;97976.13;5235702;28;20256;-63
2022/02/24 07:42:10;;;;;;;6.70;5.87;;;3.00;99.90;;;3.91;88.78;97978.69;5242878;28;20227;-64
2022/02/24 07:44:45;;;;;;;6.13;5.63;;;3.10;99.90;;;4.05;88.80;97989.19;5243734;28;20200;-63
2022/02/24 07:47:20;;;;;;;8.57;6.97;;;3.20;99.90;;;4.15;88.75;97982.34;5232495;28;20201;-63
2022/02/24 07:49:54;;;;;;;7.27;6.53;;;3.40;99.90;;;4.27;88.66;97978.34;5240485;28;20222;-64
2022/02/24 07:52:27;;;;;;;9.23;7.17;;;3.50;99.90;;;4.44;88.24;97970.50;5240961;28;20212;-63
2022/02/24 07:55:00;;;;;;;6.60;6.00;;;3.60;99.90;;;4.56;88.10;97967.22;5247217;28;20205;-64
2022/02/24 07:57:33;;;;;;;7.10;6.40;;;3.80;99.90;;;4.70;87.51;97966.69;5239998;28;20201;-63
2022/02/24 08:00:13;;;;;;;7.67;6.90;;;3.90;99.90;;;4.76;86.32;97963.75;5235745;28;20202;-64
2022/02/24 08:02:46;;;;;;;7.60;6.43;;;3.90;99.90;;;4.78;85.56;97958.06;5241196;28;20292;-63
2022/02/24 08:05:20;;;;;;;9.40;8.60;;;4.00;99.90;;;4.84;85.63;97945.91;5236909;28;20209;-63
2022/02/24 08:07:53;;;;;;;9.17;8.37;;;4.00;99.90;;;4.93;85.40;97935.63;5244013;28;20681;-64
2022/02/24 08:10:26;;;;;;;8.87;8.03;;;4.10;99.90;;;5.04;84.74;97933.94;5247779;28;20558;-64
2022/02/24 08:13:01;;;;;;;8.17;7.33;;;4.30;99.90;;;5.27;83.93;97928.16;5244484;28;20242;-63
2022/02/24 08:15:35;;;;;;;7.67;6.97;;;4.50;99.90;;;5.26;84.01;97928.91;5245018;28;20211;-64
2022/02/24 08:18:08;;;;;;;7.43;6.57;;;4.50;99.90;;;5.48;83.94;97939.06;5243661;28;20207;-64
2022/02/24 08:20:42;;;;;;;7.80;7.13;;;4.70;99.90;;;5.57;83.22;97934.72;5242363;28;20210;-64
2022/02/24 08:23:18;;;;;;;7.40;6.70;;;4.80;99.90;;;5.71;83.82;97936.66;5229372;28;20224;-64
2022/02/24 08:25:51;;;;;;;8.90;8.00;;;5.00;99.90;;;6.00;82.62;97940.56;5244379;28;20200;-63
2022/02/24 08:28:25;;;;;;;10.20;7.80;;;5.10;99.90;;;6.18;81.38;97931.81;5239156;28;20686;-64
2022/02/24 08:30:59;;;;;;;8.20;7.40;;;5.40;99.90;;;6.38;80.53;97935.84;5243875;28;20207;-64
2022/02/24 08:33:33;;;;;;;7.93;7.23;;;5.60;99.90;;;6.67;78.01;97917.66;5244308;28;20220;-64
2022/02/24 08:36:06;;;;;;;8.53;7.00;;;5.80;99.90;;;6.95;76.84;97929.78;5243466;28;20200;-63
2022/02/24 08:38:39;;;;;;;9.20;8.13;;;6.10;99.90;;;7.00;77.01;97918.31;5243721;28;20607;-61
2022/02/24 08:41:33;;;;;;;7.10;6.40;;;6.30;99.90;;;7.12;75.80;97911.56;5236504;28;20217;-64
2022/02/24 08:44:06;;;;;;;7.27;6.57;;;6.40;99.90;;;7.08;76.58;97909.59;5244326;28;20646;-64
2022/02/24 08:46:44;;;;;;;8.13;7.30;;;6.30;99.90;;;7.16;76.83;97905.94;5243326;28;20208;-61
2022/02/24 08:49:17;;;;;;;7.93;7.10;;;6.40;99.90;;;7.43;74.52;97901.00;5240897;28;20667;-63
2022/02/24 08:51:50;;;;;;;8.10;7.30;;;6.60;99.90;;;7.44;74.77;97896.03;5242993;28;20205;-64
2022/02/24 08:54:23;;;;;;;7.97;7.17;;;6.60;99.90;;;7.54;75.32;97889.03;5244364;28;20212;-64
2022/02/24 08:56:56;;;;;;;8.33;7.40;;;6.80;99.90;;;7.69;74.80;97882.44;5243341;28;20209;-64
2022/02/24 08:59:30;;;;;;;8.23;7.40;;;7.00;99.90;;;7.82;75.12;97884.19;5243931;28;20205;-64
2022/02/24 09:02:05;;;;;;;7.20;6.50;;;7.10;99.90;;;7.87;74.07;97882.84;5243088;28;20537;-64
2022/02/24 09:04:38;;;;;;;8.83;7.47;;;7.10;99.90;;;8.03;73.83;97883.06;5244762;28;20716;-64
2022/02/24 09:07:11;;;;;;;8.13;6.87;;;7.30;99.90;;;8.24;72.85;97868.38;5242686;28;20192;-64
2022/02/24 09:09:44;;;;;;;7.23;6.53;;;7.50;99.90;;;8.42;72.60;97871.25;5241661;28;20196;-64
2022/02/24 09:12:18;;;;;;;7.73;7.03;;;7.70;99.90;;;8.72;72.08;97858.72;5238701;28;20231;-62
2022/02/24 09:14:51;;;;;;;8.77;7.20;;;8.10;99.90;;;8.65;72.83;97856.59;5243121;28;20659;-64
2022/02/24 09:17:25;;;;;;;9.07;7.50;;;8.10;99.90;;;8.77;73.99;97845.50;5241179;28;20238;-64
2022/02/24 09:19:58;;;;;;;8.90;7.57;;;8.30;99.90;;;9.08;74.49;97850.00;5234207;28;20209;-63
2022/02/24 09:22:31;;;;;;;7.70;7.03;;;8.60;99.90;;;9.37;75.38;97851.78;5241195;28;20234;-64
2022/02/24 09:25:05;;;;;;;7.07;6.43;;;9.00;99.90;;;9.72;74.28;97842.84;5244639;28;20231;-65
2022/02/24 09:27:38;;;;;;;8.03;7.23;;;9.40;99.90;;;10.15;71.43;97836.03;5247689;28;20672;-64
2022/02/24 09:30:12;;;;;;;8.77;6.97;;;9.80;99.90;;;10.45;69.83;97825.00;5243729;28;20214;-64
2022/02/24 09:32:46;;;;;;;7.37;6.77;;;10.10;99.90;;;10.73;69.33;97825.75;5246510;28;20255;-64
2022/02/24 09:35:19;;;;;;;7.17;6.43;;;10.40;99.90;;;10.93;68.19;97818.28;5243968;28;20218;-64
2022/02/24 09:37:53;;;;;;;7.43;6.80;;;10.60;99.90;;;11.12;66.84;97810.81;5245048;28;20200;-64
2022/02/24 09:40:26;;;;;;;7.90;6.82;;;10.80;99.90;;;11.31;66.42;97811.81;5245964;28;20235;-64
2022/02/24 09:43:20;;;;;;;7.35;6.68;;;10.90;99.90;;;11.49;65.26;97810.22;5243686;28;20225;-64
2022/02/24 09:46:01;;;;;;;7.40;6.70;;;11.00;99.90;;;11.63;65.24;97808.38;5245396;28;20250;-64
2022/02/24 09:48:41;;;;;;;7.53;6.93;;;11.20;99.90;;;11.91;64.38;97801.34;5235968;28;20639;-64
2022/02/24 09:51:17;;;;;;;6.53;5.93;;;11.40;99.90;;;12.02;63.90;97801.00;5245657;28;20255;-65
2022/02/24 09:53:51;;;;;;;4.57;4.18;;;11.50;99.90;;;12.14;59.67;97791.38;5244356;28;20228;-65
2022/02/24 09:56:29;;;;;;;4.25;3.90;;;11.60;99.90;;;12.46;59.90;97790.38;5244083;28;20201;-64
2022/02/24 09:59:02;;;;;;;4.55;3.45;;;12.00;99.90;;;12.82;59.00;97782.69;5243670;28;20254;-65
2022/02/24 10:01:40;;;;;;;4.03;3.72;;;12.40;99.90;;;13.16;56.85;97780.00;5242728;28;20228;-64
2022/02/24 10:04:15;;;;;;;4.15;3.85;;;12.60;99.90;;;13.33;56.35;97785.91;5245314;28;20739;-65
2022/02/24 10:06:49;;;;;;;4.00;3.60;;;12.80;99.90;;;13.57;56.38;97767.28;5243444;28;20631;-65
2022/02/24 10:09:31;;;;;;;4.05;3.75;;;13.00;99.90;;;13.83;54.95;97760.72;5244782;28;20307;-64
2022/02/24 10:12:06;;;;;;;5.60;3.50;;;13.10;99.90;;;14.01;54.92;97760.59;5242743;28;20350;-64
2022/02/24 10:14:39;;;;;;;3.20;3.00;;;13.40;99.80;;;14.18;54.00;97754.47;5235548;28;20304;-64
2022/02/24 10:17:16;;;;;;;3.08;2.80;;;13.70;99.30;;;14.35;52.89;97758.59;5243559;28;20193;-64
2022/02/24 10:19:51;;;;;;;2.67;2.47;;;13.80;98.30;;;14.66;50.72;97759.88;5242581;28;20192;-65
2022/02/24 10:22:28;;;;;;;3.55;3.25;;;14.00;97.20;;;14.82;50.57;97754.50;5243517;28;20302;-65
2022/02/24 10:25:05;;;;;;;3.60;2.92;;;14.10;97.10;;;14.94;49.42;97745.50;5240378;28;20200;-64
2022/02/24 10:27:39;;;;;;;3.83;3.03;;;14.30;96.00;;;14.83;49.62;97738.22;5245219;28;20279;-65
2022/02/24 10:30:16;;;;;;;3.53;2.80;;;14.00;96.40;;;14.67;49.61;97737.59;5242907;28;20204;-65
2022/02/24 10:32:52;;;;;;;3.08;2.88;;;13.90;96.70;;;14.72;50.06;97739.50;5238814;28;20224;-65
2022/02/24 10:35:29;;;;;;;4.35;3.10;;;14.10;96.60;;;14.75;50.81;97729.34;5244498;28;20574;-65
2022/02/24 10:38:06;;;;;;;3.00;2.80;;;14.10;96.50;;;14.82;50.47;97726.19;5242610;28;20625;-65
2022/02/24 10:40:41;;;;;;;3.55;2.83;;;14.20;96.70;;;14.99;49.87;97718.22;5242533;28;20569;-65
2022/02/24 10:43:19;;;;;;;3.35;3.10;;;14.30;96.50;;;15.01;49.51;97721.72;5241653;28;20220;-65
2022/02/24 10:46:05;;;;;;;3.85;2.85;;;14.30;96.30;;;15.00;49.38;97717.41;5243194;28;20218;-65
2022/02/24 10:48:51;;;;;;;3.15;2.85;;;14.40;95.90;;;15.02;48.84;97723.47;5243163;28;20204;-64
2022/02/24 10:51:28;;;;;;;3.85;3.05;;;14.40;95.70;;;14.99;48.95;97718.22;5243366;28;20291;-65
2022/02/24 10:54:04;;;;;;;3.22;2.88;;;14.40;95.80;;;15.00;49.02;97714.84;5241425;28;20311;-66
2022/02/24 10:56:40;;;;;;;4.13;3.20;;;14.40;95.80;;;14.98;49.21;97711.31;5239658;28;20206;-65
2022/02/24 10:59:16;;;;;;;3.47;3.17;;;14.40;95.70;;;15.04;49.16;97715.00;5244036;28;20253;-66